sensor_id;sensor_type;location;lat;lon;timestamp;temperature;humidity
78536;SHT31;67829;51.968;5.684;2023-04-19T00:02:25;13.1;55.2
78536;SHT31;67829;51.968;5.684;2023-04-19T00:04:54;13.1;55.6
78536;SHT31;67829;51.968;5.684;2023-04-19T00:07:22;13.1;55.6
78536;SHT31;67829;51.968;5.684;2023-04-19T00:09:51;13.1;55.8
78536;SHT31;67829;51.968;5.684;2023-04-19T00:12:20;13.1;55.8
78536;SHT31;67829;51.968;5.684;2023-04-19T00:14:48;13.1;56.0
78536;SHT31;67829;51.968;5.684;2023-04-19T00:17:17;13.2;56.0
78536;SHT31;67829;51.968;5.684;2023-04-19T00:19:46;13.2;56.1
78536;SHT31;67829;51.968;5.684;2023-04-19T00:22:15;13.2;56.2
78536;SHT31;67829;51.968;5.684;2023-04-19T00:24:43;13.2;56.1
78536;SHT31;67829;51.968;5.684;2023-04-19T00:27:12;13.2;56.3
78536;SHT31;67829;51.968;5.684;2023-04-19T00:29:40;13.2;56.3
78536;SHT31;67829;51.968;5.684;2023-04-19T00:32:09;13.2;56.2
78536;SHT31;67829;51.968;5.684;2023-04-19T00:34:37;13.3;56.3
78536;SHT31;67829;51.968;5.684;2023-04-19T00:37:07;13.3;56.3
78536;SHT31;67829;51.968;5.684;2023-04-19T00:39:36;13.3;56.2
78536;SHT31;67829;51.968;5.684;2023-04-19T00:42:05;13.3;56.3
78536;SHT31;67829;51.968;5.684;2023-04-19T00:44:34;13.3;56.2
78536;SHT31;67829;51.968;5.684;2023-04-19T00:47:04;13.3;56.2
78536;SHT31;67829;51.968;5.684;2023-04-19T00:49:33;13.3;56.2
78536;SHT31;67829;51.968;5.684;2023-04-19T00:52:01;13.3;56.2
78536;SHT31;67829;51.968;5.684;2023-04-19T00:54:34;13.3;56.3
78536;SHT31;67829;51.968;5.684;2023-04-19T00:57:03;13.3;56.2
78536;SHT31;67829;51.968;5.684;2023-04-19T00:59:35;13.3;56.2
78536;SHT31;67829;51.968;5.684;2023-04-19T01:02:03;13.2;56.3
78536;SHT31;67829;51.968;5.684;2023-04-19T01:04:32;13.2;56.2
78536;SHT31;67829;51.968;5.684;2023-04-19T01:07:02;13.2;56.2
78536;SHT31;67829;51.968;5.684;2023-04-19T01:09:31;13.2;56.2
78536;SHT31;67829;51.968;5.684;2023-04-19T01:12:01;13.1;56.3
78536;SHT31;67829;51.968;5.684;2023-04-19T01:14:29;13.1;56.5
78536;SHT31;67829;51.968;5.684;2023-04-19T01:16:58;13.0;56.5
78536;SHT31;67829;51.968;5.684;2023-04-19T01:19:26;13.0;56.8
78536;SHT31;67829;51.968;5.684;2023-04-19T01:21:55;12.9;56.9
78536;SHT31;67829;51.968;5.684;2023-04-19T01:24:23;12.9;57.0
78536;SHT31;67829;51.968;5.684;2023-04-19T01:26:52;12.9;57.2
78536;SHT31;67829;51.968;5.684;2023-04-19T01:29:21;12.8;57.2
78536;SHT31;67829;51.968;5.684;2023-04-19T01:31:49;12.8;57.4
78536;SHT31;67829;51.968;5.684;2023-04-19T01:34:19;12.7;57.5
78536;SHT31;67829;51.968;5.684;2023-04-19T01:36:48;12.7;57.7
78536;SHT31;67829;51.968;5.684;2023-04-19T01:39:17;12.6;58.0
78536;SHT31;67829;51.968;5.684;2023-04-19T01:41:48;12.6;58.0
78536;SHT31;67829;51.968;5.684;2023-04-19T01:44:16;12.6;58.2
78536;SHT31;67829;51.968;5.684;2023-04-19T01:46:45;12.5;58.2
78536;SHT31;67829;51.968;5.684;2023-04-19T01:49:14;12.5;58.3
78536;SHT31;67829;51.968;5.684;2023-04-19T01:51:43;12.5;58.5
78536;SHT31;67829;51.968;5.684;2023-04-19T01:54:11;12.5;58.5
78536;SHT31;67829;51.968;5.684;2023-04-19T01:56:41;12.4;58.7
78536;SHT31;67829;51.968;5.684;2023-04-19T01:59:10;12.4;58.7
78536;SHT31;67829;51.968;5.684;2023-04-19T02:01:39;12.4;58.7
78536;SHT31;67829;51.968;5.684;2023-04-19T02:04:10;12.4;59.0
78536;SHT31;67829;51.968;5.684;2023-04-19T02:06:38;12.3;59.0
78536;SHT31;67829;51.968;5.684;2023-04-19T02:09:07;12.3;59.1
78536;SHT31;67829;51.968;5.684;2023-04-19T02:11:35;12.3;59.2
78536;SHT31;67829;51.968;5.684;2023-04-19T02:14:04;12.3;59.4
78536;SHT31;67829;51.968;5.684;2023-04-19T02:16:32;12.3;59.3
78536;SHT31;67829;51.968;5.684;2023-04-19T02:19:01;12.2;59.5
78536;SHT31;67829;51.968;5.684;2023-04-19T02:21:29;12.2;59.4
78536;SHT31;67829;51.968;5.684;2023-04-19T02:23:59;12.2;59.4
78536;SHT31;67829;51.968;5.684;2023-04-19T02:26:27;12.2;59.5
78536;SHT31;67829;51.968;5.684;2023-04-19T02:28:56;12.2;59.6
78536;SHT31;67829;51.968;5.684;2023-04-19T02:31:24;12.2;59.6
78536;SHT31;67829;51.968;5.684;2023-04-19T02:33:53;12.2;59.6
78536;SHT31;67829;51.968;5.684;2023-04-19T02:36:22;12.1;59.7
78536;SHT31;67829;51.968;5.684;2023-04-19T02:38:51;12.1;59.8
78536;SHT31;67829;51.968;5.684;2023-04-19T02:41:20;12.1;59.8
78536;SHT31;67829;51.968;5.684;2023-04-19T02:43:49;12.0;60.0
78536;SHT31;67829;51.968;5.684;2023-04-19T02:46:17;12.0;60.0
78536;SHT31;67829;51.968;5.684;2023-04-19T02:48:46;12.0;60.2
78536;SHT31;67829;51.968;5.684;2023-04-19T02:51:16;12.0;60.5
78536;SHT31;67829;51.968;5.684;2023-04-19T02:53:47;12.0;60.3
78536;SHT31;67829;51.968;5.684;2023-04-19T02:56:15;11.9;60.5
78536;SHT31;67829;51.968;5.684;2023-04-19T02:58:44;11.9;60.5
78536;SHT31;67829;51.968;5.684;2023-04-19T03:01:12;11.9;60.5
78536;SHT31;67829;51.968;5.684;2023-04-19T03:03:41;11.9;60.7
78536;SHT31;67829;51.968;5.684;2023-04-19T03:06:09;12.0;60.4
78536;SHT31;67829;51.968;5.684;2023-04-19T03:08:38;12.0;60.4
78536;SHT31;67829;51.968;5.684;2023-04-19T03:11:06;12.0;60.5
78536;SHT31;67829;51.968;5.684;2023-04-19T03:13:35;12.0;60.2
78536;SHT31;67829;51.968;5.684;2023-04-19T03:16:06;12.0;60.2
78536;SHT31;67829;51.968;5.684;2023-04-19T03:18:35;12.0;60.2
78536;SHT31;67829;51.968;5.684;2023-04-19T03:21:03;12.1;60.1
78536;SHT31;67829;51.968;5.684;2023-04-19T03:23:34;12.1;60.0
78536;SHT31;67829;51.968;5.684;2023-04-19T03:26:03;12.1;60.0
78536;SHT31;67829;51.968;5.684;2023-04-19T03:28:31;12.1;59.8
78536;SHT31;67829;51.968;5.684;2023-04-19T03:31:00;12.1;59.9
78536;SHT31;67829;51.968;5.684;2023-04-19T03:33:29;12.1;59.7
78536;SHT31;67829;51.968;5.684;2023-04-19T03:35:59;12.1;59.5
78536;SHT31;67829;51.968;5.684;2023-04-19T03:38:28;12.1;59.5
78536;SHT31;67829;51.968;5.684;2023-04-19T03:40:57;12.2;59.3
78536;SHT31;67829;51.968;5.684;2023-04-19T03:43:25;12.2;59.2
78536;SHT31;67829;51.968;5.684;2023-04-19T03:45:54;12.2;59.1
78536;SHT31;67829;51.968;5.684;2023-04-19T03:48:22;12.2;59.2
78536;SHT31;67829;51.968;5.684;2023-04-19T03:50:51;12.2;59.2
78536;SHT31;67829;51.968;5.684;2023-04-19T03:53:19;12.2;59.0
78536;SHT31;67829;51.968;5.684;2023-04-19T03:55:48;12.2;58.7
78536;SHT31;67829;51.968;5.684;2023-04-19T03:58:16;12.2;58.9
78536;SHT31;67829;51.968;5.684;2023-04-19T04:00:45;12.2;58.5
78536;SHT31;67829;51.968;5.684;2023-04-19T04:03:13;12.2;58.5
78536;SHT31;67829;51.968;5.684;2023-04-19T04:05:44;12.2;58.4
78536;SHT31;67829;51.968;5.684;2023-04-19T04:08:12;12.2;58.3
78536;SHT31;67829;51.968;5.684;2023-04-19T04:10:41;12.2;58.3
78536;SHT31;67829;51.968;5.684;2023-04-19T04:13:09;12.2;58.0
78536;SHT31;67829;51.968;5.684;2023-04-19T04:15:38;12.2;58.0
78536;SHT31;67829;51.968;5.684;2023-04-19T04:18:06;12.1;57.7
78536;SHT31;67829;51.968;5.684;2023-04-19T04:20:36;12.1;57.8
78536;SHT31;67829;51.968;5.684;2023-04-19T04:23:04;12.1;57.7
78536;SHT31;67829;51.968;5.684;2023-04-19T04:25:36;12.0;57.9
78536;SHT31;67829;51.968;5.684;2023-04-19T04:28:05;12.0;57.8
78536;SHT31;67829;51.968;5.684;2023-04-19T04:30:34;12.0;57.7
78536;SHT31;67829;51.968;5.684;2023-04-19T04:33:02;11.9;57.8
78536;SHT31;67829;51.968;5.684;2023-04-19T04:35:31;11.9;57.7
78536;SHT31;67829;51.968;5.684;2023-04-19T04:38:00;11.9;57.9
78536;SHT31;67829;51.968;5.684;2023-04-19T04:40:31;11.8;58.0
78536;SHT31;67829;51.968;5.684;2023-04-19T04:42:59;11.8;58.2
78536;SHT31;67829;51.968;5.684;2023-04-19T04:45:29;11.7;58.3
78536;SHT31;67829;51.968;5.684;2023-04-19T04:47:59;11.7;58.4
78536;SHT31;67829;51.968;5.684;2023-04-19T04:50:27;11.6;58.3
78536;SHT31;67829;51.968;5.684;2023-04-19T04:52:56;11.6;58.4
78536;SHT31;67829;51.968;5.684;2023-04-19T04:55:25;11.6;58.4
78536;SHT31;67829;51.968;5.684;2023-04-19T04:57:53;11.5;58.5
78536;SHT31;67829;51.968;5.684;2023-04-19T05:00:23;11.5;58.7
78536;SHT31;67829;51.968;5.684;2023-04-19T05:02:52;11.4;58.6
78536;SHT31;67829;51.968;5.684;2023-04-19T05:05:21;11.4;58.6
78536;SHT31;67829;51.968;5.684;2023-04-19T05:07:50;11.4;58.9
78536;SHT31;67829;51.968;5.684;2023-04-19T05:10:18;11.3;58.6
78536;SHT31;67829;51.968;5.684;2023-04-19T05:12:49;11.3;58.7
78536;SHT31;67829;51.968;5.684;2023-04-19T05:15:17;11.3;58.4
78536;SHT31;67829;51.968;5.684;2023-04-19T05:17:46;11.3;58.4
78536;SHT31;67829;51.968;5.684;2023-04-19T05:20:16;11.2;57.8
78536;SHT31;67829;51.968;5.684;2023-04-19T05:22:45;11.2;57.8
78536;SHT31;67829;51.968;5.684;2023-04-19T05:25:13;11.2;57.6
78536;SHT31;67829;51.968;5.684;2023-04-19T05:27:42;11.2;57.5
78536;SHT31;67829;51.968;5.684;2023-04-19T05:30:11;11.2;57.4
78536;SHT31;67829;51.968;5.684;2023-04-19T05:32:39;11.2;57.4
78536;SHT31;67829;51.968;5.684;2023-04-19T05:35:09;11.2;57.3
78536;SHT31;67829;51.968;5.684;2023-04-19T05:37:38;11.2;57.3
78536;SHT31;67829;51.968;5.684;2023-04-19T05:40:10;11.2;57.2
78536;SHT31;67829;51.968;5.684;2023-04-19T05:42:39;11.2;57.0
78536;SHT31;67829;51.968;5.684;2023-04-19T05:45:08;11.2;56.8
78536;SHT31;67829;51.968;5.684;2023-04-19T05:47:37;11.2;56.4
78536;SHT31;67829;51.968;5.684;2023-04-19T05:50:06;11.2;56.6
78536;SHT31;67829;51.968;5.684;2023-04-19T05:52:35;11.2;56.1
78536;SHT31;67829;51.968;5.684;2023-04-19T05:55:04;11.2;55.0
78536;SHT31;67829;51.968;5.684;2023-04-19T05:57:33;11.3;55.0
78536;SHT31;67829;51.968;5.684;2023-04-19T06:00:01;11.3;54.1
78536;SHT31;67829;51.968;5.684;2023-04-19T06:02:30;11.3;53.8
78536;SHT31;67829;51.968;5.684;2023-04-19T06:04:58;11.3;53.7
78536;SHT31;67829;51.968;5.684;2023-04-19T06:07:29;11.3;53.1
78536;SHT31;67829;51.968;5.684;2023-04-19T06:09:58;11.4;53.0
78536;SHT31;67829;51.968;5.684;2023-04-19T06:12:27;11.4;52.1
78536;SHT31;67829;51.968;5.684;2023-04-19T06:14:56;11.4;51.3
78536;SHT31;67829;51.968;5.684;2023-04-19T06:17:24;11.5;51.0
78536;SHT31;67829;51.968;5.684;2023-04-19T06:19:53;11.5;50.5
78536;SHT31;67829;51.968;5.684;2023-04-19T06:22:22;11.5;50.7
78536;SHT31;67829;51.968;5.684;2023-04-19T06:24:51;11.5;50.9
78536;SHT31;67829;51.968;5.684;2023-04-19T06:27:21;11.6;48.7
78536;SHT31;67829;51.968;5.684;2023-04-19T06:29:50;11.6;48.7
78536;SHT31;67829;51.968;5.684;2023-04-19T06:32:21;11.6;48.8
78536;SHT31;67829;51.968;5.684;2023-04-19T06:34:51;11.6;48.0
78536;SHT31;67829;51.968;5.684;2023-04-19T06:37:19;11.6;48.5
78536;SHT31;67829;51.968;5.684;2023-04-19T06:39:48;11.7;47.9
78536;SHT31;67829;51.968;5.684;2023-04-19T06:42:17;11.7;47.5
78536;SHT31;67829;51.968;5.684;2023-04-19T06:44:46;11.7;47.8
78536;SHT31;67829;51.968;5.684;2023-04-19T06:47:14;11.8;46.0
78536;SHT31;67829;51.968;5.684;2023-04-19T06:49:43;11.8;46.4
78536;SHT31;67829;51.968;5.684;2023-04-19T06:52:12;11.8;46.3
78536;SHT31;67829;51.968;5.684;2023-04-19T06:54:40;11.8;46.3
78536;SHT31;67829;51.968;5.684;2023-04-19T06:57:09;11.9;44.8
78536;SHT31;67829;51.968;5.684;2023-04-19T06:59:37;11.9;45.4
78536;SHT31;67829;51.968;5.684;2023-04-19T07:02:06;12.0;45.0
78536;SHT31;67829;51.968;5.684;2023-04-19T07:04:35;12.0;43.3
78536;SHT31;67829;51.968;5.684;2023-04-19T07:07:04;12.1;42.6
78536;SHT31;67829;51.968;5.684;2023-04-19T07:09:32;12.1;43.8
78536;SHT31;67829;51.968;5.684;2023-04-19T07:12:03;12.1;42.5
78536;SHT31;67829;51.968;5.684;2023-04-19T07:14:31;12.2;42.7
78536;SHT31;67829;51.968;5.684;2023-04-19T07:17:00;12.2;42.9
78536;SHT31;67829;51.968;5.684;2023-04-19T07:19:28;12.2;41.8
78536;SHT31;67829;51.968;5.684;2023-04-19T07:21:57;12.3;42.1
78536;SHT31;67829;51.968;5.684;2023-04-19T07:24:26;12.3;42.7
78536;SHT31;67829;51.968;5.684;2023-04-19T07:26:55;12.4;41.0
78536;SHT31;67829;51.968;5.684;2023-04-19T07:29:24;12.4;40.4
78536;SHT31;67829;51.968;5.684;2023-04-19T07:31:53;12.4;41.2
78536;SHT31;67829;51.968;5.684;2023-04-19T07:34:22;12.4;41.2
78536;SHT31;67829;51.968;5.684;2023-04-19T07:36:50;12.4;40.3
78536;SHT31;67829;51.968;5.684;2023-04-19T07:39:19;12.5;40.8
78536;SHT31;67829;51.968;5.684;2023-04-19T07:41:49;12.5;39.8
78536;SHT31;67829;51.968;5.684;2023-04-19T07:44:17;12.5;40.3
78536;SHT31;67829;51.968;5.684;2023-04-19T07:46:48;12.5;40.3
78536;SHT31;67829;51.968;5.684;2023-04-19T07:49:16;12.6;40.0
78536;SHT31;67829;51.968;5.684;2023-04-19T07:51:46;12.6;39.7
78536;SHT31;67829;51.968;5.684;2023-04-19T07:54:14;12.6;40.3
78536;SHT31;67829;51.968;5.684;2023-04-19T07:56:45;12.7;40.9
78536;SHT31;67829;51.968;5.684;2023-04-19T07:59:14;12.7;39.7
78536;SHT31;67829;51.968;5.684;2023-04-19T08:01:43;12.8;39.2
78536;SHT31;67829;51.968;5.684;2023-04-19T08:04:11;12.8;38.1
78536;SHT31;67829;51.968;5.684;2023-04-19T08:06:40;12.9;38.4
78536;SHT31;67829;51.968;5.684;2023-04-19T08:09:08;12.9;38.8
78536;SHT31;67829;51.968;5.684;2023-04-19T08:11:37;12.9;38.4
78536;SHT31;67829;51.968;5.684;2023-04-19T08:14:05;12.9;38.6
78536;SHT31;67829;51.968;5.684;2023-04-19T08:16:34;13.0;38.1
78536;SHT31;67829;51.968;5.684;2023-04-19T08:19:03;13.0;37.1
78536;SHT31;67829;51.968;5.684;2023-04-19T08:21:31;13.0;37.8
78536;SHT31;67829;51.968;5.684;2023-04-19T08:24:00;13.0;36.5
78536;SHT31;67829;51.968;5.684;2023-04-19T08:26:28;13.1;37.0
78536;SHT31;67829;51.968;5.684;2023-04-19T08:28:57;13.1;36.1
78536;SHT31;67829;51.968;5.684;2023-04-19T08:31:25;13.1;36.5
78536;SHT31;67829;51.968;5.684;2023-04-19T08:33:54;13.1;35.9
78536;SHT31;67829;51.968;5.684;2023-04-19T08:36:23;13.2;35.8
78536;SHT31;67829;51.968;5.684;2023-04-19T08:38:55;13.2;35.8
78536;SHT31;67829;51.968;5.684;2023-04-19T08:41:24;13.2;36.1
78536;SHT31;67829;51.968;5.684;2023-04-19T08:43:54;13.3;36.2
78536;SHT31;67829;51.968;5.684;2023-04-19T08:46:23;13.3;35.3
78536;SHT31;67829;51.968;5.684;2023-04-19T08:48:53;13.3;36.1
78536;SHT31;67829;51.968;5.684;2023-04-19T08:51:22;13.3;37.1
78536;SHT31;67829;51.968;5.684;2023-04-19T08:53:55;13.3;37.8
78536;SHT31;67829;51.968;5.684;2023-04-19T08:56:25;13.4;35.5
78536;SHT31;67829;51.968;5.684;2023-04-19T08:58:54;13.4;35.3
78536;SHT31;67829;51.968;5.684;2023-04-19T09:01:23;13.5;34.6
78536;SHT31;67829;51.968;5.684;2023-04-19T09:03:52;13.5;35.0
78536;SHT31;67829;51.968;5.684;2023-04-19T09:06:20;13.6;34.5
78536;SHT31;67829;51.968;5.684;2023-04-19T09:08:49;13.6;33.8
78536;SHT31;67829;51.968;5.684;2023-04-19T09:11:36;13.7;32.9
78536;SHT31;67829;51.968;5.684;2023-04-19T09:14:09;13.7;32.6
78536;SHT31;67829;51.968;5.684;2023-04-19T09:16:40;13.7;32.6
78536;SHT31;67829;51.968;5.684;2023-04-19T09:19:09;13.8;32.3
78536;SHT31;67829;51.968;5.684;2023-04-19T09:21:39;13.8;32.7
78536;SHT31;67829;51.968;5.684;2023-04-19T09:24:08;13.8;31.7
78536;SHT31;67829;51.968;5.684;2023-04-19T09:26:37;13.8;32.0
78536;SHT31;67829;51.968;5.684;2023-04-19T09:29:06;13.8;32.7
78536;SHT31;67829;51.968;5.684;2023-04-19T09:31:37;13.9;33.3
78536;SHT31;67829;51.968;5.684;2023-04-19T09:34:16;13.9;32.6
78536;SHT31;67829;51.968;5.684;2023-04-19T09:36:45;13.9;32.9
78536;SHT31;67829;51.968;5.684;2023-04-19T09:39:31;13.9;33.2
78536;SHT31;67829;51.968;5.684;2023-04-19T09:42:01;14.0;32.7
78536;SHT31;67829;51.968;5.684;2023-04-19T09:44:30;14.0;31.8
78536;SHT31;67829;51.968;5.684;2023-04-19T09:47:00;14.0;32.1
78536;SHT31;67829;51.968;5.684;2023-04-19T09:49:30;14.0;32.2
78536;SHT31;67829;51.968;5.684;2023-04-19T09:51:59;14.0;32.1
78536;SHT31;67829;51.968;5.684;2023-04-19T09:54:29;14.0;32.3
78536;SHT31;67829;51.968;5.684;2023-04-19T09:56:58;14.0;33.3
78536;SHT31;67829;51.968;5.684;2023-04-19T09:59:28;14.0;32.0
78536;SHT31;67829;51.968;5.684;2023-04-19T10:01:58;14.0;32.7
78536;SHT31;67829;51.968;5.684;2023-04-19T10:04:28;14.1;33.0
78536;SHT31;67829;51.968;5.684;2023-04-19T10:06:57;14.1;34.1
78536;SHT31;67829;51.968;5.684;2023-04-19T10:09:27;14.1;32.8
78536;SHT31;67829;51.968;5.684;2023-04-19T10:11:59;14.1;33.4
78536;SHT31;67829;51.968;5.684;2023-04-19T10:14:30;14.2;32.5
78536;SHT31;67829;51.968;5.684;2023-04-19T10:17:02;14.2;32.5
78536;SHT31;67829;51.968;5.684;2023-04-19T10:19:34;14.3;32.4
78536;SHT31;67829;51.968;5.684;2023-04-19T10:22:06;14.3;32.1
78536;SHT31;67829;51.968;5.684;2023-04-19T10:24:35;14.3;32.4
78536;SHT31;67829;51.968;5.684;2023-04-19T10:27:08;14.4;32.8
78536;SHT31;67829;51.968;5.684;2023-04-19T10:29:55;14.4;32.4
78536;SHT31;67829;51.968;5.684;2023-04-19T10:32:26;14.5;32.7
78536;SHT31;67829;51.968;5.684;2023-04-19T10:35:02;14.5;32.8
78536;SHT31;67829;51.968;5.684;2023-04-19T10:37:38;14.6;32.2
78536;SHT31;67829;51.968;5.684;2023-04-19T10:40:09;14.6;31.5
78536;SHT31;67829;51.968;5.684;2023-04-19T10:43:29;14.7;29.8
78536;SHT31;67829;51.968;5.684;2023-04-19T10:46:07;14.7;29.8
78536;SHT31;67829;51.968;5.684;2023-04-19T10:48:38;14.7;30.7
78536;SHT31;67829;51.968;5.684;2023-04-19T10:51:14;14.8;29.7
78536;SHT31;67829;51.968;5.684;2023-04-19T10:53:52;14.8;30.5
78536;SHT31;67829;51.968;5.684;2023-04-19T10:59:16;14.9;31.3
78536;SHT31;67829;51.968;5.684;2023-04-19T11:01:55;14.9;30.9
78536;SHT31;67829;51.968;5.684;2023-04-19T11:07:17;15.0;30.0
78536;SHT31;67829;51.968;5.684;2023-04-19T11:09:48;15.1;31.0
78536;SHT31;67829;51.968;5.684;2023-04-19T11:12:19;15.1;29.5
78536;SHT31;67829;51.968;5.684;2023-04-19T11:14:51;15.1;30.6
78536;SHT31;67829;51.968;5.684;2023-04-19T11:17:22;15.2;31.3
78536;SHT31;67829;51.968;5.684;2023-04-19T11:19:57;15.2;29.6
78536;SHT31;67829;51.968;5.684;2023-04-19T11:22:29;15.3;29.5
78536;SHT31;67829;51.968;5.684;2023-04-19T11:25:06;15.3;29.3
78536;SHT31;67829;51.968;5.684;2023-04-19T11:27:35;15.4;28.6
78536;SHT31;67829;51.968;5.684;2023-04-19T11:30:09;15.4;30.5
78536;SHT31;67829;51.968;5.684;2023-04-19T11:32:43;15.4;30.5
78536;SHT31;67829;51.968;5.684;2023-04-19T11:35:12;15.4;29.5
78536;SHT31;67829;51.968;5.684;2023-04-19T11:37:41;15.5;28.5
78536;SHT31;67829;51.968;5.684;2023-04-19T11:40:13;15.5;27.1
78536;SHT31;67829;51.968;5.684;2023-04-19T11:42:43;15.6;25.6
78536;SHT31;67829;51.968;5.684;2023-04-19T11:45:24;15.6;26.1
78536;SHT31;67829;51.968;5.684;2023-04-19T11:47:57;15.6;26.2
78536;SHT31;67829;51.968;5.684;2023-04-19T11:50:37;15.7;26.2
78536;SHT31;67829;51.968;5.684;2023-04-19T11:53:16;15.7;27.1
78536;SHT31;67829;51.968;5.684;2023-04-19T11:55:47;15.7;26.1
78536;SHT31;67829;51.968;5.684;2023-04-19T11:58:29;15.8;26.9
78536;SHT31;67829;51.968;5.684;2023-04-19T12:01:03;15.8;27.5
78536;SHT31;67829;51.968;5.684;2023-04-19T12:03:34;15.9;25.8
78536;SHT31;67829;51.968;5.684;2023-04-19T12:06:10;15.9;27.3
78536;SHT31;67829;51.968;5.684;2023-04-19T12:08:42;16.0;26.3
78536;SHT31;67829;51.968;5.684;2023-04-19T12:11:13;16.0;26.3
78536;SHT31;67829;51.968;5.684;2023-04-19T12:13:42;16.0;26.4
78536;SHT31;67829;51.968;5.684;2023-04-19T12:16:11;16.0;25.9
78536;SHT31;67829;51.968;5.684;2023-04-19T12:18:46;16.1;25.8
78536;SHT31;67829;51.968;5.684;2023-04-19T12:21:25;16.1;24.5
78536;SHT31;67829;51.968;5.684;2023-04-19T12:23:56;16.1;24.9
78536;SHT31;67829;51.968;5.684;2023-04-19T12:26:26;16.1;24.8
78536;SHT31;67829;51.968;5.684;2023-04-19T12:28:57;16.1;24.0
78536;SHT31;67829;51.968;5.684;2023-04-19T12:31:26;16.1;24.3
78536;SHT31;67829;51.968;5.684;2023-04-19T12:33:54;16.1;25.2
78536;SHT31;67829;51.968;5.684;2023-04-19T12:36:23;16.2;23.9
78536;SHT31;67829;51.968;5.684;2023-04-19T12:38:52;16.2;23.5
78536;SHT31;67829;51.968;5.684;2023-04-19T12:41:21;16.2;25.2
78536;SHT31;67829;51.968;5.684;2023-04-19T12:43:49;16.2;25.4
78536;SHT31;67829;51.968;5.684;2023-04-19T12:46:18;16.2;25.9
78536;SHT31;67829;51.968;5.684;2023-04-19T12:48:46;16.3;25.2
78536;SHT31;67829;51.968;5.684;2023-04-19T12:51:15;16.3;25.8
78536;SHT31;67829;51.968;5.684;2023-04-19T12:53:46;16.3;25.8
78536;SHT31;67829;51.968;5.684;2023-04-19T12:56:16;16.4;25.4
78536;SHT31;67829;51.968;5.684;2023-04-19T12:58:45;16.4;25.1
78536;SHT31;67829;51.968;5.684;2023-04-19T13:01:13;16.4;25.4
78536;SHT31;67829;51.968;5.684;2023-04-19T13:03:42;16.4;25.7
78536;SHT31;67829;51.968;5.684;2023-04-19T13:06:11;16.4;26.1
78536;SHT31;67829;51.968;5.684;2023-04-19T13:08:40;16.5;25.4
78536;SHT31;67829;51.968;5.684;2023-04-19T13:11:09;16.5;25.1
78536;SHT31;67829;51.968;5.684;2023-04-19T13:13:37;16.5;25.3
78536;SHT31;67829;51.968;5.684;2023-04-19T13:16:06;16.5;25.4
78536;SHT31;67829;51.968;5.684;2023-04-19T13:18:36;16.5;27.1
78536;SHT31;67829;51.968;5.684;2023-04-19T13:21:05;16.5;26.2
78536;SHT31;67829;51.968;5.684;2023-04-19T13:23:33;16.5;25.4
78536;SHT31;67829;51.968;5.684;2023-04-19T13:26:02;16.5;24.8
78536;SHT31;67829;51.968;5.684;2023-04-19T13:28:31;16.5;25.5
78536;SHT31;67829;51.968;5.684;2023-04-19T13:31:01;16.5;24.6
78536;SHT31;67829;51.968;5.684;2023-04-19T13:33:29;16.6;25.7
78536;SHT31;67829;51.968;5.684;2023-04-19T13:35:58;16.6;24.8
78536;SHT31;67829;51.968;5.684;2023-04-19T13:38:27;16.6;24.5
78536;SHT31;67829;51.968;5.684;2023-04-19T13:40:56;16.6;26.2
78536;SHT31;67829;51.968;5.684;2023-04-19T13:43:24;16.6;25.2
78536;SHT31;67829;51.968;5.684;2023-04-19T13:45:53;16.7;25.8
78536;SHT31;67829;51.968;5.684;2023-04-19T13:48:22;16.7;24.9
78536;SHT31;67829;51.968;5.684;2023-04-19T13:50:52;16.7;26.2
78536;SHT31;67829;51.968;5.684;2023-04-19T13:53:21;16.8;25.2
78536;SHT31;67829;51.968;5.684;2023-04-19T13:55:51;16.8;24.3
78536;SHT31;67829;51.968;5.684;2023-04-19T13:58:21;16.9;23.6
78536;SHT31;67829;51.968;5.684;2023-04-19T14:00:52;16.9;23.9
78536;SHT31;67829;51.968;5.684;2023-04-19T14:03:21;16.9;23.8
78536;SHT31;67829;51.968;5.684;2023-04-19T14:05:49;17.0;23.6
78536;SHT31;67829;51.968;5.684;2023-04-19T14:08:18;17.0;23.2
78536;SHT31;67829;51.968;5.684;2023-04-19T14:10:47;17.0;23.5
78536;SHT31;67829;51.968;5.684;2023-04-19T14:13:16;17.0;24.6
78536;SHT31;67829;51.968;5.684;2023-04-19T14:15:45;17.1;23.7
78536;SHT31;67829;51.968;5.684;2023-04-19T14:18:13;17.1;23.7
78536;SHT31;67829;51.968;5.684;2023-04-19T14:20:42;17.1;23.6
78536;SHT31;67829;51.968;5.684;2023-04-19T14:23:11;17.2;23.7
78536;SHT31;67829;51.968;5.684;2023-04-19T14:25:39;17.2;23.5
78536;SHT31;67829;51.968;5.684;2023-04-19T14:28:08;17.2;23.6
78536;SHT31;67829;51.968;5.684;2023-04-19T14:30:38;17.2;23.4
78536;SHT31;67829;51.968;5.684;2023-04-19T14:33:08;17.2;25.1
78536;SHT31;67829;51.968;5.684;2023-04-19T14:35:37;17.2;24.6
78536;SHT31;67829;51.968;5.684;2023-04-19T14:38:05;17.3;24.9
78536;SHT31;67829;51.968;5.684;2023-04-19T14:40:34;17.3;24.9
78536;SHT31;67829;51.968;5.684;2023-04-19T14:43:03;17.3;25.3
78536;SHT31;67829;51.968;5.684;2023-04-19T14:45:31;17.3;25.4
78536;SHT31;67829;51.968;5.684;2023-04-19T14:48:00;17.3;25.5
78536;SHT31;67829;51.968;5.684;2023-04-19T14:50:28;17.3;26.2
78536;SHT31;67829;51.968;5.684;2023-04-19T14:52:57;17.3;26.7
78536;SHT31;67829;51.968;5.684;2023-04-19T14:55:25;17.4;25.8
78536;SHT31;67829;51.968;5.684;2023-04-19T14:57:54;17.3;25.8
78536;SHT31;67829;51.968;5.684;2023-04-19T15:00:23;17.3;25.2
78536;SHT31;67829;51.968;5.684;2023-04-19T15:02:51;17.3;25.4
78536;SHT31;67829;51.968;5.684;2023-04-19T15:05:20;17.3;25.9
78536;SHT31;67829;51.968;5.684;2023-04-19T15:07:49;17.3;26.9
78536;SHT31;67829;51.968;5.684;2023-04-19T15:10:18;17.3;27.3
78536;SHT31;67829;51.968;5.684;2023-04-19T15:12:46;17.3;26.2
78536;SHT31;67829;51.968;5.684;2023-04-19T15:15:15;17.3;26.9
78536;SHT31;67829;51.968;5.684;2023-04-19T15:17:43;17.2;27.3
78536;SHT31;67829;51.968;5.684;2023-04-19T15:20:12;17.2;26.8
78536;SHT31;67829;51.968;5.684;2023-04-19T15:22:41;17.2;26.1
78536;SHT31;67829;51.968;5.684;2023-04-19T15:25:09;17.2;26.0
78536;SHT31;67829;51.968;5.684;2023-04-19T15:27:38;17.2;26.1
78536;SHT31;67829;51.968;5.684;2023-04-19T15:30:08;17.2;26.2
78536;SHT31;67829;51.968;5.684;2023-04-19T15:32:37;17.2;26.7
78536;SHT31;67829;51.968;5.684;2023-04-19T15:35:06;17.2;26.3
78536;SHT31;67829;51.968;5.684;2023-04-19T15:37:36;17.2;26.2
78536;SHT31;67829;51.968;5.684;2023-04-19T15:40:07;17.2;26.6
78536;SHT31;67829;51.968;5.684;2023-04-19T15:42:39;17.1;27.0
78536;SHT31;67829;51.968;5.684;2023-04-19T15:45:08;17.1;27.5
78536;SHT31;67829;51.968;5.684;2023-04-19T15:47:37;17.1;27.7
78536;SHT31;67829;51.968;5.684;2023-04-19T15:50:07;17.1;27.6
78536;SHT31;67829;51.968;5.684;2023-04-19T15:52:36;17.2;28.4
78536;SHT31;67829;51.968;5.684;2023-04-19T15:55:05;17.2;28.2
78536;SHT31;67829;51.968;5.684;2023-04-19T15:57:34;17.4;27.4
78536;SHT31;67829;51.968;5.684;2023-04-19T16:00:03;17.5;27.2
78536;SHT31;67829;51.968;5.684;2023-04-19T16:02:36;17.7;27.5
78536;SHT31;67829;51.968;5.684;2023-04-19T16:05:06;17.8;27.8
78536;SHT31;67829;51.968;5.684;2023-04-19T16:07:35;17.9;27.3
78536;SHT31;67829;51.968;5.684;2023-04-19T16:10:04;18.1;27.7
78536;SHT31;67829;51.968;5.684;2023-04-19T16:12:34;18.2;27.2
78536;SHT31;67829;51.968;5.684;2023-04-19T16:15:04;18.3;27.4
78536;SHT31;67829;51.968;5.684;2023-04-19T16:17:33;18.4;27.1
78536;SHT31;67829;51.968;5.684;2023-04-19T16:20:04;18.5;26.1
78536;SHT31;67829;51.968;5.684;2023-04-19T16:22:32;18.6;26.0
78536;SHT31;67829;51.968;5.684;2023-04-19T16:25:01;18.6;26.4